sensor_id;sensor_type;location;lat;lon;timestamp;pressure;altitude;pressure_sealevel;temperature;humidity
40908;BME280;51055;59.436;24.778;2022-08-19T00:02:15;101689.75;;;25.07;58.03
40908;BME280;51055;59.436;24.778;2022-08-19T00:04:43;101690.81;;;25.06;58.04
40908;BME280;51055;59.436;24.778;2022-08-19T00:07:13;101689.75;;;25.07;58.34
40908;BME280;51055;59.436;24.778;2022-08-19T00:09:41;101688.34;;;25.11;57.88
40908;BME280;51055;59.436;24.778;2022-08-19T00:12:09;101688.50;;;25.03;58.33
40908;BME280;51055;59.436;24.778;2022-08-19T00:14:38;101691.97;;;24.97;58.51
40908;BME280;51055;59.436;24.778;2022-08-19T00:17:07;101691.97;;;24.97;58.86
40908;BME280;51055;59.436;24.778;2022-08-19T00:19:36;101686.72;;;24.95;58.80
40908;BME280;51055;59.436;24.778;2022-08-19T00:22:04;101687.88;;;24.86;58.94
40908;BME280;51055;59.436;24.778;2022-08-19T00:24:32;101684.00;;;24.95;58.44
40908;BME280;51055;59.436;24.778;2022-08-19T00:27:00;101674.00;;;24.81;58.68
40908;BME280;51055;59.436;24.778;2022-08-19T00:29:49;101687.88;;;24.86;59.09
40908;BME280;51055;59.436;24.778;2022-08-19T00:32:19;101667.22;;;24.70;59.32
40908;BME280;51055;59.436;24.778;2022-08-19T00:34:47;101680.72;;;24.64;59.07
40908;BME280;51055;59.436;24.778;2022-08-19T00:37:15;101675.94;;;24.66;59.51
40908;BME280;51055;59.436;24.778;2022-08-19T00:39:42;101678.81;;;24.64;59.52
40908;BME280;51055;59.436;24.778;2022-08-19T00:42:11;101677.16;;;24.63;59.37
40908;BME280;51055;59.436;24.778;2022-08-19T00:44:42;101684.06;;;24.66;59.20
40908;BME280;51055;59.436;24.778;2022-08-19T00:47:10;101680.72;;;24.64;59.19
40908;BME280;51055;59.436;24.778;2022-08-19T00:49:49;101683.44;;;24.64;59.26
40908;BME280;51055;59.436;24.778;2022-08-19T00:52:27;101684.44;;;24.63;59.03
40908;BME280;51055;59.436;24.778;2022-08-19T00:54:57;101684.38;;;24.56;59.61
40908;BME280;51055;59.436;24.778;2022-08-19T00:57:29;101685.03;;;24.44;59.85
40908;BME280;51055;59.436;24.778;2022-08-19T00:59:58;101695.91;;;24.44;59.72
40908;BME280;51055;59.436;24.778;2022-08-19T01:02:30;101686.91;;;24.43;59.94
40908;BME280;51055;59.436;24.778;2022-08-19T01:05:02;101685.59;;;24.39;59.97
40908;BME280;51055;59.436;24.778;2022-08-19T01:07:30;101693.28;;;24.35;60.57
40908;BME280;51055;59.436;24.778;2022-08-19T01:10:12;101691.56;;;24.34;59.94
40908;BME280;51055;59.436;24.778;2022-08-19T01:12:41;101690.56;;;24.35;60.20
40908;BME280;51055;59.436;24.778;2022-08-19T01:15:11;101689.25;;;24.31;60.21
40908;BME280;51055;59.436;24.778;2022-08-19T01:17:41;101687.19;;;24.19;60.33
40908;BME280;51055;59.436;24.778;2022-08-19T01:20:15;101688.59;;;24.29;60.30
40908;BME280;51055;59.436;24.778;2022-08-19T01:22:52;101691.88;;;24.25;60.54
40908;BME280;51055;59.436;24.778;2022-08-19T01:25:24;101686.25;;;24.26;60.48
40908;BME280;51055;59.436;24.778;2022-08-19T01:27:55;101689.63;;;24.14;60.45
40908;BME280;51055;59.436;24.778;2022-08-19T01:30:31;101691.50;;;24.13;60.24
40908;BME280;51055;59.436;24.778;2022-08-19T01:33:00;101696.06;;;24.13;61.09
40908;BME280;51055;59.436;24.778;2022-08-19T01:35:29;101690.09;;;24.17;60.38
40908;BME280;51055;59.436;24.778;2022-08-19T01:38:01;101700.09;;;24.17;60.31
40908;BME280;51055;59.436;24.778;2022-08-19T01:40:32;101699.09;;;24.18;60.40
40908;BME280;51055;59.436;24.778;2022-08-19T01:43:01;101697.81;;;24.06;60.80
40908;BME280;51055;59.436;24.778;2022-08-19T01:45:32;101701.94;;;24.02;60.84
40908;BME280;51055;59.436;24.778;2022-08-19T01:48:00;101698.19;;;24.03;61.10
40908;BME280;51055;59.436;24.778;2022-08-19T01:50:30;101691.19;;;24.08;60.88
40908;BME280;51055;59.436;24.778;2022-08-19T01:53:00;101699.69;;;24.05;60.96
40908;BME280;51055;59.436;24.778;2022-08-19T01:55:36;101704.47;;;24.03;60.79
40908;BME280;51055;59.436;24.778;2022-08-19T01:58:18;101701.47;;;23.98;61.19
40908;BME280;51055;59.436;24.778;2022-08-19T02:00:48;101701.53;;;23.90;61.39
40908;BME280;51055;59.436;24.778;2022-08-19T02:03:16;101699.69;;;23.91;61.53
40908;BME280;51055;59.436;24.778;2022-08-19T02:05:44;101702.09;;;23.85;61.51
40908;BME280;51055;59.436;24.778;2022-08-19T02:08:13;101698.56;;;23.85;61.52
40908;BME280;51055;59.436;24.778;2022-08-19T02:10:42;101699.84;;;23.89;61.57
40908;BME280;51055;59.436;24.778;2022-08-19T02:13:12;101686.13;;;23.91;61.19
40908;BME280;51055;59.436;24.778;2022-08-19T02:15:41;101698.19;;;23.88;61.57
40908;BME280;51055;59.436;24.778;2022-08-19T02:18:08;101690.44;;;23.85;61.78
40908;BME280;51055;59.436;24.778;2022-08-19T02:20:38;101694.31;;;23.82;61.38
40908;BME280;51055;59.436;24.778;2022-08-19T02:23:06;101687.78;;;23.77;61.63
40908;BME280;51055;59.436;24.778;2022-08-19T02:25:44;101688.41;;;23.64;62.24
40908;BME280;51055;59.436;24.778;2022-08-19T02:28:13;101689.75;;;23.68;62.29
40908;BME280;51055;59.436;24.778;2022-08-19T02:30:46;101689.91;;;23.67;62.25
40908;BME280;51055;59.436;24.778;2022-08-19T02:33:14;101683.00;;;23.79;61.65
40908;BME280;51055;59.436;24.778;2022-08-19T02:35:45;101690.22;;;23.72;62.15
40908;BME280;51055;59.436;24.778;2022-08-19T02:38:14;101684.50;;;23.67;61.89
40908;BME280;51055;59.436;24.778;2022-08-19T02:40:59;101687.88;;;23.69;62.34
40908;BME280;51055;59.436;24.778;2022-08-19T02:43:29;101694.06;;;23.77;62.20
40908;BME280;51055;59.436;24.778;2022-08-19T02:46:01;101698.63;;;23.77;61.84
40908;BME280;51055;59.436;24.778;2022-08-19T02:48:28;101697.66;;;23.70;61.79
40908;BME280;51055;59.436;24.778;2022-08-19T02:50:56;101698.03;;;23.67;61.99
40908;BME280;51055;59.436;24.778;2022-08-19T02:53:26;101698.16;;;23.73;61.68
40908;BME280;51055;59.436;24.778;2022-08-19T02:55:54;101699.03;;;23.51;62.64
40908;BME280;51055;59.436;24.778;2022-08-19T02:58:22;101700.00;;;23.58;62.62
40908;BME280;51055;59.436;24.778;2022-08-19T03:00:54;101697.66;;;23.55;62.69
40908;BME280;51055;59.436;24.778;2022-08-19T03:03:22;101690.81;;;23.59;62.48
40908;BME280;51055;59.436;24.778;2022-08-19T03:05:50;101699.50;;;23.55;63.11
40908;BME280;51055;59.436;24.778;2022-08-19T03:08:23;101697.59;;;23.41;62.95
40908;BME280;51055;59.436;24.778;2022-08-19T03:10:51;101695.38;;;23.44;63.11
40908;BME280;51055;59.436;24.778;2022-08-19T03:13:20;101701.44;;;23.46;62.78
40908;BME280;51055;59.436;24.778;2022-08-19T03:15:48;101710.13;;;23.42;63.42
40908;BME280;51055;59.436;24.778;2022-08-19T03:18:16;101711.13;;;23.41;63.46
40908;BME280;51055;59.436;24.778;2022-08-19T03:20:46;101713.69;;;23.34;63.71
40908;BME280;51055;59.436;24.778;2022-08-19T03:23:16;101714.53;;;23.34;63.60
40908;BME280;51055;59.436;24.778;2022-08-19T03:25:45;101714.53;;;23.34;63.27
40908;BME280;51055;59.436;24.778;2022-08-19T03:28:29;101716.97;;;23.29;63.55
40908;BME280;51055;59.436;24.778;2022-08-19T03:31:00;101711.28;;;23.39;63.25
40908;BME280;51055;59.436;24.778;2022-08-19T03:33:31;101715.06;;;23.30;63.78
40908;BME280;51055;59.436;24.778;2022-08-19T03:36:05;101721.88;;;23.26;63.93
40908;BME280;51055;59.436;24.778;2022-08-19T03:38:40;101718.81;;;23.29;63.94
40908;BME280;51055;59.436;24.778;2022-08-19T03:41:11;101725.13;;;23.21;64.18
40908;BME280;51055;59.436;24.778;2022-08-19T03:43:42;101720.44;;;23.15;64.39
40908;BME280;51055;59.436;24.778;2022-08-19T03:46:16;101719.09;;;23.11;64.67
40908;BME280;51055;59.436;24.778;2022-08-19T03:48:45;101724.47;;;23.19;64.28
40908;BME280;51055;59.436;24.778;2022-08-19T03:51:26;101723.38;;;23.28;64.28
40908;BME280;51055;59.436;24.778;2022-08-19T03:53:59;101720.34;;;23.23;63.98
40908;BME280;51055;59.436;24.778;2022-08-19T03:56:27;101722.06;;;23.24;64.19
40908;BME280;51055;59.436;24.778;2022-08-19T03:58:56;101729.19;;;23.17;64.72
40908;BME280;51055;59.436;24.778;2022-08-19T04:01:27;101737.03;;;23.12;64.65
40908;BME280;51055;59.436;24.778;2022-08-19T04:04:01;101729.19;;;23.17;64.86
40908;BME280;51055;59.436;24.778;2022-08-19T04:06:33;101727.56;;;23.08;64.44
40908;BME280;51055;59.436;24.778;2022-08-19T04:09:09;101726.72;;;23.08;64.80
40908;BME280;51055;59.436;24.778;2022-08-19T04:11:41;101725.63;;;22.94;65.31
40908;BME280;51055;59.436;24.778;2022-08-19T04:14:13;101726.44;;;23.03;64.91
40908;BME280;51055;59.436;24.778;2022-08-19T04:16:42;101719.41;;;23.16;65.53
40908;BME280;51055;59.436;24.778;2022-08-19T04:19:12;101725.97;;;23.22;64.42
40908;BME280;51055;59.436;24.778;2022-08-19T04:21:43;101725.25;;;23.28;65.15
40908;BME280;51055;59.436;24.778;2022-08-19T04:24:12;101722.81;;;23.41;64.23
40908;BME280;51055;59.436;24.778;2022-08-19T04:26:40;101722.94;;;23.48;64.03
40908;BME280;51055;59.436;24.778;2022-08-19T04:29:11;101728.34;;;23.40;64.32
40908;BME280;51055;59.436;24.778;2022-08-19T04:31:40;101725.28;;;23.51;63.91
40908;BME280;51055;59.436;24.778;2022-08-19T04:34:12;101728.75;;;23.59;63.73
40908;BME280;51055;59.436;24.778;2022-08-19T04:36:42;101724.84;;;23.62;63.56
40908;BME280;51055;59.436;24.778;2022-08-19T04:39:15;101727.94;;;23.59;63.26
40908;BME280;51055;59.436;24.778;2022-08-19T04:41:44;101729.59;;;23.60;64.07
40908;BME280;51055;59.436;24.778;2022-08-19T04:44:34;101724.69;;;23.78;62.47
40908;BME280;51055;59.436;24.778;2022-08-19T04:47:11;101734.25;;;23.89;62.78
40908;BME280;51055;59.436;24.778;2022-08-19T04:49:39;101726.56;;;23.92;62.46
40908;BME280;51055;59.436;24.778;2022-08-19T04:52:07;101726.94;;;23.89;62.37
40908;BME280;51055;59.436;24.778;2022-08-19T04:54:35;101737.94;;;24.10;61.80
40908;BME280;51055;59.436;24.778;2022-08-19T04:57:07;101729.34;;;24.21;61.08
40908;BME280;51055;59.436;24.778;2022-08-19T04:59:38;101726.94;;;24.26;61.24
40908;BME280;51055;59.436;24.778;2022-08-19T05:02:08;101718.06;;;24.32;61.10
40908;BME280;51055;59.436;24.778;2022-08-19T05:04:36;101723.38;;;24.26;61.12
40908;BME280;51055;59.436;24.778;2022-08-19T05:07:07;101723.94;;;24.36;60.92
40908;BME280;51055;59.436;24.778;2022-08-19T05:09:35;101727.84;;;24.48;60.85
40908;BME280;51055;59.436;24.778;2022-08-19T05:12:23;101722.81;;;24.60;59.85
40908;BME280;51055;59.436;24.778;2022-08-19T05:14:57;101720.84;;;24.54;60.12
40908;BME280;51055;59.436;24.778;2022-08-19T05:17:26;101718.94;;;24.69;59.76
40908;BME280;51055;59.436;24.778;2022-08-19T05:19:57;101721.09;;;24.73;60.14
40908;BME280;51055;59.436;24.778;2022-08-19T05:22:45;101716.31;;;24.75;59.74
40908;BME280;51055;59.436;24.778;2022-08-19T05:25:16;101720.72;;;24.91;59.80
40908;BME280;51055;59.436;24.778;2022-08-19T05:27:47;101720.72;;;24.91;59.63
40908;BME280;51055;59.436;24.778;2022-08-19T05:30:15;101726.97;;;25.06;59.30
40908;BME280;51055;59.436;24.778;2022-08-19T05:32:43;101726.03;;;25.20;58.62
40908;BME280;51055;59.436;24.778;2022-08-19T05:35:10;101733.03;;;25.29;57.94
40908;BME280;51055;59.436;24.778;2022-08-19T05:37:39;101726.19;;;25.33;58.05
40908;BME280;51055;59.436;24.778;2022-08-19T05:40:08;101733.94;;;25.36;58.22
40908;BME280;51055;59.436;24.778;2022-08-19T05:42:37;101743.63;;;25.24;58.89
40908;BME280;51055;59.436;24.778;2022-08-19T05:45:06;101742.88;;;25.30;58.26
40908;BME280;51055;59.436;24.778;2022-08-19T05:47:34;101737.84;;;25.49;58.55
40908;BME280;51055;59.436;24.778;2022-08-19T05:50:08;101742.47;;;25.76;57.72
40908;BME280;51055;59.436;24.778;2022-08-19T05:52:37;101734.94;;;25.99;57.30
40908;BME280;51055;59.436;24.778;2022-08-19T05:55:16;101735.19;;;26.04;56.63
40908;BME280;51055;59.436;24.778;2022-08-19T05:57:44;101740.88;;;26.09;56.58
40908;BME280;51055;59.436;24.778;2022-08-19T06:00:12;101739.19;;;26.08;56.40
40908;BME280;51055;59.436;24.778;2022-08-19T06:02:40;101732.91;;;26.08;56.36
40908;BME280;51055;59.436;24.778;2022-08-19T06:05:08;101736.75;;;25.92;56.63
40908;BME280;51055;59.436;24.778;2022-08-19T06:07:37;101744.50;;;25.95;56.86
40908;BME280;51055;59.436;24.778;2022-08-19T06:10:07;101741.03;;;26.01;57.20
40908;BME280;51055;59.436;24.778;2022-08-19T06:12:35;101738.94;;;26.03;56.89
40908;BME280;51055;59.436;24.778;2022-08-19T06:15:10;101743.53;;;26.03;56.54
40908;BME280;51055;59.436;24.778;2022-08-19T06:17:38;101737.88;;;25.98;57.47
40908;BME280;51055;59.436;24.778;2022-08-19T06:20:09;101741.03;;;26.01;57.64
40908;BME280;51055;59.436;24.778;2022-08-19T06:22:42;101740.19;;;26.01;57.47
40908;BME280;51055;59.436;24.778;2022-08-19T06:25:10;101740.28;;;26.14;57.13
40908;BME280;51055;59.436;24.778;2022-08-19T06:27:38;101743.94;;;26.21;56.83
40908;BME280;51055;59.436;24.778;2022-08-19T06:30:25;101735.34;;;25.96;57.43
40908;BME280;51055;59.436;24.778;2022-08-19T06:32:53;101731.13;;;25.94;57.33
40908;BME280;51055;59.436;24.778;2022-08-19T06:35:21;101734.47;;;26.17;57.38
40908;BME280;51055;59.436;24.778;2022-08-19T06:37:48;101737.41;;;26.22;56.82
40908;BME280;51055;59.436;24.778;2022-08-19T06:40:16;101739.38;;;26.75;56.19
40908;BME280;51055;59.436;24.778;2022-08-19T06:42:44;101741.63;;;27.13;54.84
40908;BME280;51055;59.436;24.778;2022-08-19T06:45:22;101743.00;;;27.89;52.00
40908;BME280;51055;59.436;24.778;2022-08-19T06:47:52;101740.63;;;28.52;50.75
40908;BME280;51055;59.436;24.778;2022-08-19T06:50:23;101739.72;;;28.64;50.20
40908;BME280;51055;59.436;24.778;2022-08-19T06:52:51;101742.56;;;28.25;50.24
40908;BME280;51055;59.436;24.778;2022-08-19T06:55:20;101748.44;;;28.02;51.39
40908;BME280;51055;59.436;24.778;2022-08-19T06:57:47;101743.03;;;28.09;50.66
40908;BME280;51055;59.436;24.778;2022-08-19T07:00:15;101739.66;;;28.00;51.40
40908;BME280;51055;59.436;24.778;2022-08-19T07:02:44;101743.00;;;27.95;51.23
40908;BME280;51055;59.436;24.778;2022-08-19T07:05:23;101748.03;;;28.18;50.99
40908;BME280;51055;59.436;24.778;2022-08-19T07:07:51;101740.13;;;28.74;50.40
40908;BME280;51055;59.436;24.778;2022-08-19T07:10:19;101747.06;;;29.21;48.54
40908;BME280;51055;59.436;24.778;2022-08-19T07:12:47;101744.91;;;29.61;46.94
40908;BME280;51055;59.436;24.778;2022-08-19T07:15:16;101745.63;;;29.75;46.87
40908;BME280;51055;59.436;24.778;2022-08-19T07:17:45;101746.06;;;29.09;48.41
40908;BME280;51055;59.436;24.778;2022-08-19T07:20:19;101745.75;;;29.30;48.19
40908;BME280;51055;59.436;24.778;2022-08-19T07:22:47;101756.28;;;29.58;47.89
40908;BME280;51055;59.436;24.778;2022-08-19T07:25:16;101749.50;;;29.67;47.25
40908;BME280;51055;59.436;24.778;2022-08-19T07:27:45;101748.66;;;30.16;46.33
40908;BME280;51055;59.436;24.778;2022-08-19T07:30:21;101749.97;;;30.14;45.99
40908;BME280;51055;59.436;24.778;2022-08-19T07:32:52;101743.09;;;31.14;44.14
40908;BME280;51055;59.436;24.778;2022-08-19T07:35:20;101743.41;;;31.35;43.82
40908;BME280;51055;59.436;24.778;2022-08-19T07:37:48;101741.50;;;31.06;43.90
40908;BME280;51055;59.436;24.778;2022-08-19T07:40:16;101735.72;;;31.14;44.09
40908;BME280;51055;59.436;24.778;2022-08-19T07:42:44;101739.69;;;31.30;42.70
40908;BME280;51055;59.436;24.778;2022-08-19T07:45:12;101743.03;;;31.32;43.23
40908;BME280;51055;59.436;24.778;2022-08-19T07:47:40;101741.75;;;31.46;42.54
40908;BME280;51055;59.436;24.778;2022-08-19T07:50:18;101743.75;;;31.57;42.68
40908;BME280;51055;59.436;24.778;2022-08-19T07:52:48;101746.41;;;31.45;41.96
40908;BME280;51055;59.436;24.778;2022-08-19T07:55:22;101750.53;;;31.66;41.95
40908;BME280;51055;59.436;24.778;2022-08-19T07:58:13;101757.19;;;31.17;43.52
40908;BME280;51055;59.436;24.778;2022-08-19T08:00:43;101739.25;;;30.85;43.61
40908;BME280;51055;59.436;24.778;2022-08-19T08:03:12;101754.13;;;30.95;43.28
40908;BME280;51055;59.436;24.778;2022-08-19T08:05:40;101750.75;;;31.23;42.57
40908;BME280;51055;59.436;24.778;2022-08-19T08:08:27;101742.53;;;31.23;42.48
40908;BME280;51055;59.436;24.778;2022-08-19T08:11:18;101741.97;;;31.03;43.36
40908;BME280;51055;59.436;24.778;2022-08-19T08:13:48;101741.44;;;30.94;43.26
40908;BME280;51055;59.436;24.778;2022-08-19T08:16:35;101751.72;;;30.99;43.16
40908;BME280;51055;59.436;24.778;2022-08-19T08:19:14;101748.41;;;31.38;42.08
40908;BME280;51055;59.436;24.778;2022-08-19T08:21:54;101741.28;;;31.37;42.22
40908;BME280;51055;59.436;24.778;2022-08-19T08:24:22;101741.84;;;30.98;42.91
40908;BME280;51055;59.436;24.778;2022-08-19T08:26:55;101751.31;;;30.66;43.76
40908;BME280;51055;59.436;24.778;2022-08-19T08:29:30;101757.81;;;30.46;44.40
40908;BME280;51055;59.436;24.778;2022-08-19T08:32:02;101753.63;;;30.26;45.16
40908;BME280;51055;59.436;24.778;2022-08-19T08:34:41;101754.19;;;30.10;45.52
40908;BME280;51055;59.436;24.778;2022-08-19T08:37:09;101756.81;;;29.73;46.02
40908;BME280;51055;59.436;24.778;2022-08-19T08:39:37;101754.78;;;29.62;46.46
40908;BME280;51055;59.436;24.778;2022-08-19T08:45:21;101752.31;;;29.85;46.46
40908;BME280;51055;59.436;24.778;2022-08-19T08:47:47;101753.78;;;29.81;45.86
40908;BME280;51055;59.436;24.778;2022-08-19T08:50:32;101754.47;;;29.77;45.85
40908;BME280;51055;59.436;24.778;2022-08-19T08:53:06;101751.47;;;29.85;46.21
40908;BME280;51055;59.436;24.778;2022-08-19T08:55:36;101758.56;;;29.92;46.19
40908;BME280;51055;59.436;24.778;2022-08-19T08:58:13;101758.16;;;29.89;45.71
40908;BME280;51055;59.436;24.778;2022-08-19T09:00:46;101767.28;;;29.83;45.64
40908;BME280;51055;59.436;24.778;2022-08-19T09:03:26;101769.19;;;29.76;44.91
40908;BME280;51055;59.436;24.778;2022-08-19T09:08:45;101776.34;;;29.77;45.65
40908;BME280;51055;59.436;24.778;2022-08-19T09:11:22;101771.31;;;29.74;45.50
40908;BME280;51055;59.436;24.778;2022-08-19T09:17:15;101773.75;;;29.57;44.80
40908;BME280;51055;59.436;24.778;2022-08-19T09:22:37;101765.16;;;29.54;44.75
40908;BME280;51055;59.436;24.778;2022-08-19T09:25:07;101772.72;;;29.52;45.08
40908;BME280;51055;59.436;24.778;2022-08-19T09:27:36;101769.78;;;29.53;44.59
40908;BME280;51055;59.436;24.778;2022-08-19T09:30:23;101754.44;;;29.52;43.63
40908;BME280;51055;59.436;24.778;2022-08-19T09:32:52;101763.47;;;29.53;44.35
40908;BME280;51055;59.436;24.778;2022-08-19T09:35:26;101759.84;;;29.59;43.97
40908;BME280;51055;59.436;24.778;2022-08-19T09:37:56;101767.59;;;29.62;43.28
40908;BME280;51055;59.436;24.778;2022-08-19T09:40:27;101768.25;;;29.64;43.40
40908;BME280;51055;59.436;24.778;2022-08-19T09:42:58;101769.75;;;29.60;42.62
40908;BME280;51055;59.436;24.778;2022-08-19T09:45:28;101758.81;;;29.60;42.67
40908;BME280;51055;59.436;24.778;2022-08-19T09:47:56;101769.75;;;29.60;41.30
40908;BME280;51055;59.436;24.778;2022-08-19T09:50:24;101769.28;;;29.63;41.51
40908;BME280;51055;59.436;24.778;2022-08-19T09:52:52;101766.34;;;29.64;41.88
40908;BME280;51055;59.436;24.778;2022-08-19T09:55:25;101770.75;;;29.65;42.25
40908;BME280;51055;59.436;24.778;2022-08-19T09:58:01;101775.16;;;29.66;41.26
40908;BME280;51055;59.436;24.778;2022-08-19T10:00:29;101768.63;;;29.67;41.55
40908;BME280;51055;59.436;24.778;2022-08-19T10:02:58;101765.06;;;29.67;41.23
40908;BME280;51055;59.436;24.778;2022-08-19T10:05:27;101762.72;;;29.70;40.01
40908;BME280;51055;59.436;24.778;2022-08-19T10:08:18;101766.69;;;29.74;40.66
40908;BME280;51055;59.436;24.778;2022-08-19T10:10:47;101763.28;;;29.79;40.59
40908;BME280;51055;59.436;24.778;2022-08-19T10:13:18;101759.91;;;29.83;40.04
40908;BME280;51055;59.436;24.778;2022-08-19T10:15:47;101764.31;;;29.84;39.67
40908;BME280;51055;59.436;24.778;2022-08-19T10:18:19;101766.38;;;29.89;39.55
40908;BME280;51055;59.436;24.778;2022-08-19T10:20:48;101759.84;;;29.90;39.75
40908;BME280;51055;59.436;24.778;2022-08-19T10:23:20;101764.69;;;29.88;39.76
40908;BME280;51055;59.436;24.778;2022-08-19T10:25:48;101771.59;;;29.97;39.67
40908;BME280;51055;59.436;24.778;2022-08-19T10:28:17;101770.50;;;29.98;40.40
40908;BME280;51055;59.436;24.778;2022-08-19T10:30:46;101769.84;;;30.03;40.00
40908;BME280;51055;59.436;24.778;2022-08-19T10:33:14;101768.16;;;30.02;39.88
40908;BME280;51055;59.436;24.778;2022-08-19T10:36:05;101768.53;;;30.05;39.32
40908;BME280;51055;59.436;24.778;2022-08-19T10:38:34;101769.97;;;30.08;39.31
40908;BME280;51055;59.436;24.778;2022-08-19T10:41:20;101750.84;;;30.08;38.21
40908;BME280;51055;59.436;24.778;2022-08-19T10:44:06;101756.03;;;30.16;37.53
40908;BME280;51055;59.436;24.778;2022-08-19T10:46:40;101771.16;;;30.18;38.33
40908;BME280;51055;59.436;24.778;2022-08-19T10:49:15;101754.97;;;30.17;38.55
40908;BME280;51055;59.436;24.778;2022-08-19T10:51:43;101751.16;;;30.18;38.24
40908;BME280;51055;59.436;24.778;2022-08-19T10:54:29;101756.25;;;30.14;39.19
40908;BME280;51055;59.436;24.778;2022-08-19T10:57:15;101759.59;;;30.16;39.02
40908;BME280;51055;59.436;24.778;2022-08-19T10:59:43;101750.38;;;30.11;39.30
40908;BME280;51055;59.436;24.778;2022-08-19T11:02:11;101755.84;;;30.11;39.62
40908;BME280;51055;59.436;24.778;2022-08-19T11:04:40;101761.50;;;30.16;40.21
40908;BME280;51055;59.436;24.778;2022-08-19T11:07:08;101757.91;;;30.15;39.49
40908;BME280;51055;59.436;24.778;2022-08-19T11:09:39;101754.34;;;30.15;39.77
40908;BME280;51055;59.436;24.778;2022-08-19T11:12:09;101749.03;;;30.20;39.66
40908;BME280;51055;59.436;24.778;2022-08-19T11:14:37;101746.91;;;30.22;39.40
40908;BME280;51055;59.436;24.778;2022-08-19T11:17:06;101742.81;;;30.13;39.09
40908;BME280;51055;59.436;24.778;2022-08-19T11:19:35;101742.88;;;30.06;38.31
40908;BME280;51055;59.436;24.778;2022-08-19T11:22:02;101744.97;;;30.04;38.91
40908;BME280;51055;59.436;24.778;2022-08-19T11:24:31;101756.09;;;30.09;38.62
40908;BME280;51055;59.436;24.778;2022-08-19T11:27:07;101752.75;;;30.07;38.37
40908;BME280;51055;59.436;24.778;2022-08-19T11:29:39;101755.91;;;30.04;38.98
40908;BME280;51055;59.436;24.778;2022-08-19T11:32:09;101747.50;;;30.06;39.26
40908;BME280;51055;59.436;24.778;2022-08-19T11:34:37;101751.28;;;30.05;39.04
40908;BME280;51055;59.436;24.778;2022-08-19T11:37:05;101757.91;;;30.15;38.91
40908;BME280;51055;59.436;24.778;2022-08-19T11:39:34;101751.94;;;30.25;37.64
40908;BME280;51055;59.436;24.778;2022-08-19T11:42:06;101754.00;;;30.29;37.96
40908;BME280;51055;59.436;24.778;2022-08-19T11:44:54;101757.50;;;30.36;37.95
40908;BME280;51055;59.436;24.778;2022-08-19T11:47:22;101748.84;;;30.39;37.29
40908;BME280;51055;59.436;24.778;2022-08-19T11:49:50;101745.03;;;30.40;37.35
40908;BME280;51055;59.436;24.778;2022-08-19T11:52:17;101748.72;;;30.53;37.38
40908;BME280;51055;59.436;24.778;2022-08-19T11:54:45;101746.97;;;30.58;37.69
40908;BME280;51055;59.436;24.778;2022-08-19T11:57:13;101724.22;;;30.58;37.48
40908;BME280;51055;59.436;24.778;2022-08-19T11:59:48;101731.19;;;30.54;37.80
40908;BME280;51055;59.436;24.778;2022-08-19T12:02:16;101731.44;;;30.52;38.30
40908;BME280;51055;59.436;24.778;2022-08-19T12:04:44;101727.19;;;30.56;38.04
40908;BME280;51055;59.436;24.778;2022-08-19T12:07:12;101723.00;;;30.54;37.99
40908;BME280;51055;59.436;24.778;2022-08-19T12:09:40;101734.66;;;30.49;38.17
40908;BME280;51055;59.436;24.778;2022-08-19T12:12:09;101722.59;;;30.50;38.33
40908;BME280;51055;59.436;24.778;2022-08-19T12:14:37;101728.25;;;30.55;38.12
40908;BME280;51055;59.436;24.778;2022-08-19T12:17:05;101728.47;;;30.54;38.64
40908;BME280;51055;59.436;24.778;2022-08-19T12:19:36;101724.88;;;30.53;38.87
40908;BME280;51055;59.436;24.778;2022-08-19T12:22:04;101720.78;;;30.44;39.04
40908;BME280;51055;59.436;24.778;2022-08-19T12:24:33;101730.31;;;30.41;38.86
40908;BME280;51055;59.436;24.778;2022-08-19T12:27:02;101723.53;;;30.44;38.90
40908;BME280;51055;59.436;24.778;2022-08-19T12:29:30;101728.78;;;30.45;38.89
40908;BME280;51055;59.436;24.778;2022-08-19T12:31:58;101726.25;;;30.44;38.97
40908;BME280;51055;59.436;24.778;2022-08-19T12:34:31;101726.25;;;30.44;38.80
40908;BME280;51055;59.436;24.778;2022-08-19T12:37:02;101728.53;;;30.47;39.70
40908;BME280;51055;59.436;24.778;2022-08-19T12:39:35;101722.94;;;30.42;39.21
40908;BME280;51055;59.436;24.778;2022-08-19T12:42:04;101719.34;;;30.41;39.66
40908;BME280;51055;59.436;24.778;2022-08-19T12:44:32;101718.56;;;30.34;39.42
40908;BME280;51055;59.436;24.778;2022-08-19T12:47:00;101724.03;;;30.34;39.37
40908;BME280;51055;59.436;24.778;2022-08-19T12:49:31;101719.41;;;30.35;39.22
40908;BME280;51055;59.436;24.778;2022-08-19T12:52:22;101714.31;;;30.38;38.69
40908;BME280;51055;59.436;24.778;2022-08-19T12:54:52;101725.88;;;30.40;38.78
40908;BME280;51055;59.436;24.778;2022-08-19T12:57:23;101718.91;;;30.44;38.75
40908;BME280;51055;59.436;24.778;2022-08-19T13:00:17;101715.97;;;30.39;39.30
40908;BME280;51055;59.436;24.778;2022-08-19T13:02:47;101721.69;;;30.38;39.26
40908;BME280;51055;59.436;24.778;2022-08-19T13:05:22;101720.84;;;30.37;39.73
40908;BME280;51055;59.436;24.778;2022-08-19T13:07:52;101716.88;;;30.33;39.75
40908;BME280;51055;59.436;24.778;2022-08-19T13:10:24;101719.41;;;30.35;38.49
40908;BME280;51055;59.436;24.778;2022-08-19T13:12:56;101704.03;;;30.34;36.69
40908;BME280;51055;59.436;24.778;2022-08-19T13:15:27;101703.34;;;30.38;37.11